sensor_id;sensor_type;location;lat;lon;timestamp;pressure;altitude;pressure_sealevel;temperature;humidity
12868;BME280;33517;49.866;8.320;2022-12-29T00:02:35;99800.91;;;11.40;84.48
12868;BME280;33517;49.866;8.320;2022-12-29T00:05:26;99785.91;;;11.41;84.90
12868;BME280;33517;49.866;8.320;2022-12-29T00:08:18;99787.53;;;11.42;84.91
12868;BME280;33517;49.866;8.320;2022-12-29T00:11:12;99787.09;;;11.38;85.73
12868;BME280;33517;49.866;8.320;2022-12-29T00:14:04;99784.28;;;11.40;86.46
12868;BME280;33517;49.866;8.320;2022-12-29T00:17:13;99772.09;;;11.39;86.89
12868;BME280;33517;49.866;8.320;2022-12-29T00:20:08;99775.56;;;11.39;87.54
12868;BME280;33517;49.866;8.320;2022-12-29T00:23:17;99784.91;;;11.42;88.19
12868;BME280;33517;49.866;8.320;2022-12-29T00:26:27;99790.19;;;11.42;88.51
12868;BME280;33517;49.866;8.320;2022-12-29T00:29:36;99787.75;;;11.40;88.54
12868;BME280;33517;49.866;8.320;2022-12-29T00:32:45;99781.41;;;11.35;89.04
12868;BME280;33517;49.866;8.320;2022-12-29T00:35:59;99789.84;;;11.30;89.88
12868;BME280;33517;49.866;8.320;2022-12-29T00:38:56;99794.47;;;11.28;89.74
12868;BME280;33517;49.866;8.320;2022-12-29T00:42:08;99781.69;;;11.25;91.08
12868;BME280;33517;49.866;8.320;2022-12-29T00:45:18;99789.00;;;11.30;90.87
12868;BME280;33517;49.866;8.320;2022-12-29T00:48:10;99783.13;;;11.28;91.29
12868;BME280;33517;49.866;8.320;2022-12-29T00:51:03;99778.97;;;11.19;92.38
12868;BME280;33517;49.866;8.320;2022-12-29T00:53:54;99785.41;;;11.16;92.47
12868;BME280;33517;49.866;8.320;2022-12-29T00:56:46;99779.97;;;11.18;92.59
12868;BME280;33517;49.866;8.320;2022-12-29T00:59:40;99774.25;;;11.14;93.58
12868;BME280;33517;49.866;8.320;2022-12-29T01:02:32;99782.78;;;11.16;93.13
12868;BME280;33517;49.866;8.320;2022-12-29T01:05:24;99781.16;;;11.15;93.89
12868;BME280;33517;49.866;8.320;2022-12-29T01:08:17;99785.78;;;11.13;94.29
12868;BME280;33517;49.866;8.320;2022-12-29T01:11:10;99775.59;;;11.10;93.58
12868;BME280;33517;49.866;8.320;2022-12-29T01:14:01;99765.25;;;11.08;94.53
12868;BME280;33517;49.866;8.320;2022-12-29T01:16:54;99771.53;;;11.07;94.86
12868;BME280;33517;49.866;8.320;2022-12-29T01:19:46;99771.16;;;11.10;95.30
12868;BME280;33517;49.866;8.320;2022-12-29T01:22:38;99772.19;;;11.09;94.67
12868;BME280;33517;49.866;8.320;2022-12-29T01:25:31;99768.09;;;11.07;95.05
12868;BME280;33517;49.866;8.320;2022-12-29T01:28:23;99768.09;;;11.07;94.72
12868;BME280;33517;49.866;8.320;2022-12-29T01:31:15;99769.34;;;11.11;95.29
12868;BME280;33517;49.866;8.320;2022-12-29T01:34:07;99769.16;;;11.12;94.81
12868;BME280;33517;49.866;8.320;2022-12-29T01:36:59;99761.06;;;11.14;94.77
12868;BME280;33517;49.866;8.320;2022-12-29T01:39:51;99765.78;;;11.19;94.91
12868;BME280;33517;49.866;8.320;2022-12-29T01:42:44;99777.88;;;11.13;94.98
12868;BME280;33517;49.866;8.320;2022-12-29T01:45:36;99770.81;;;11.13;94.41
12868;BME280;33517;49.866;8.320;2022-12-29T01:48:28;99763.34;;;11.17;95.25
12868;BME280;33517;49.866;8.320;2022-12-29T01:51:22;99765.53;;;11.13;95.48
12868;BME280;33517;49.866;8.320;2022-12-29T01:54:17;99757.25;;;11.17;94.62
12868;BME280;33517;49.866;8.320;2022-12-29T01:57:16;99752.09;;;11.23;94.34
12868;BME280;33517;49.866;8.320;2022-12-29T02:00:12;99758.22;;;11.30;94.23
12868;BME280;33517;49.866;8.320;2022-12-29T02:03:06;99766.78;;;11.32;94.16
12868;BME280;33517;49.866;8.320;2022-12-29T02:06:01;99756.28;;;11.39;93.17
12868;BME280;33517;49.866;8.320;2022-12-29T02:08:55;99760.56;;;11.40;93.26
12868;BME280;33517;49.866;8.320;2022-12-29T02:11:48;99762.66;;;11.44;93.49
12868;BME280;33517;49.866;8.320;2022-12-29T02:14:40;99756.75;;;11.42;93.32
12868;BME280;33517;49.866;8.320;2022-12-29T02:17:44;99763.28;;;11.46;92.19
12868;BME280;33517;49.866;8.320;2022-12-29T02:21:09;99753.53;;;11.47;92.45
12868;BME280;33517;49.866;8.320;2022-12-29T02:28:07;99726.75;;;11.43;93.04
12868;BME280;33517;49.866;8.320;2022-12-29T02:31:10;99723.38;;;11.28;93.63
12868;BME280;33517;49.866;8.320;2022-12-29T02:34:16;99735.75;;;11.13;95.07
12868;BME280;33517;49.866;8.320;2022-12-29T02:37:18;99729.66;;;11.12;95.61
12868;BME280;33517;49.866;8.320;2022-12-29T02:40:18;99721.41;;;11.16;95.52
12868;BME280;33517;49.866;8.320;2022-12-29T02:43:22;99722.03;;;11.18;95.96
12868;BME280;33517;49.866;8.320;2022-12-29T02:46:19;99717.22;;;11.21;95.45
12868;BME280;33517;49.866;8.320;2022-12-29T02:49:19;99714.38;;;11.23;96.02
12868;BME280;33517;49.866;8.320;2022-12-29T02:52:15;99713.38;;;11.24;95.76
12868;BME280;33517;49.866;8.320;2022-12-29T02:55:10;99708.94;;;11.24;96.14
12868;BME280;33517;49.866;8.320;2022-12-29T02:58:16;99704.94;;;11.28;95.25
12868;BME280;33517;49.866;8.320;2022-12-29T03:01:27;99693.38;;;11.29;94.71
12868;BME280;33517;49.866;8.320;2022-12-29T03:04:26;99690.38;;;11.32;94.69
12868;BME280;33517;49.866;8.320;2022-12-29T03:07:24;99684.94;;;11.34;94.52
12868;BME280;33517;49.866;8.320;2022-12-29T03:10:30;99679.91;;;11.39;94.19
12868;BME280;33517;49.866;8.320;2022-12-29T03:13:28;99669.00;;;11.42;93.71
12868;BME280;33517;49.866;8.320;2022-12-29T03:16:45;99661.91;;;11.42;93.51
12868;BME280;33517;49.866;8.320;2022-12-29T03:19:40;99657.22;;;11.38;93.12
12868;BME280;33517;49.866;8.320;2022-12-29T03:22:41;99657.53;;;11.28;92.12
12868;BME280;33517;49.866;8.320;2022-12-29T03:25:37;99654.06;;;11.28;92.79
12868;BME280;33517;49.866;8.320;2022-12-29T03:28:35;99654.13;;;11.34;92.05
12868;BME280;33517;49.866;8.320;2022-12-29T03:31:28;99665.53;;;11.41;91.26
12868;BME280;33517;49.866;8.320;2022-12-29T03:34:23;99655.44;;;11.45;90.82
12868;BME280;33517;49.866;8.320;2022-12-29T03:37:18;99661.16;;;11.48;90.34
12868;BME280;33517;49.866;8.320;2022-12-29T03:40:12;99660.22;;;11.56;89.01
12868;BME280;33517;49.866;8.320;2022-12-29T03:43:04;99651.81;;;11.67;88.73
12868;BME280;33517;49.866;8.320;2022-12-29T03:45:56;99648.59;;;11.71;87.36
12868;BME280;33517;49.866;8.320;2022-12-29T03:48:48;99653.94;;;11.78;87.60
12868;BME280;33517;49.866;8.320;2022-12-29T03:51:41;99642.38;;;11.79;87.26
12868;BME280;33517;49.866;8.320;2022-12-29T03:54:33;99648.09;;;11.82;86.55
12868;BME280;33517;49.866;8.320;2022-12-29T03:57:25;99643.88;;;11.88;86.49
12868;BME280;33517;49.866;8.320;2022-12-29T04:00:17;99633.75;;;11.91;85.41
12868;BME280;33517;49.866;8.320;2022-12-29T04:03:09;99642.09;;;11.95;85.79
12868;BME280;33517;49.866;8.320;2022-12-29T04:06:01;99635.84;;;11.96;84.75
12868;BME280;33517;49.866;8.320;2022-12-29T04:08:54;99646.38;;;11.96;83.36
12868;BME280;33517;49.866;8.320;2022-12-29T04:11:46;99638.06;;;11.99;83.97
12868;BME280;33517;49.866;8.320;2022-12-29T04:14:38;99633.22;;;12.02;83.07
12868;BME280;33517;49.866;8.320;2022-12-29T04:17:30;99628.38;;;12.06;82.08
12868;BME280;33517;49.866;8.320;2022-12-29T04:20:22;99635.91;;;12.09;82.84
12868;BME280;33517;49.866;8.320;2022-12-29T04:23:35;99638.16;;;12.12;82.71
12868;BME280;33517;49.866;8.320;2022-12-29T04:26:29;99630.88;;;12.14;82.02
12868;BME280;33517;49.866;8.320;2022-12-29T04:29:21;99635.56;;;12.19;80.82
12868;BME280;33517;49.866;8.320;2022-12-29T04:32:12;99627.66;;;12.19;81.62
12868;BME280;33517;49.866;8.320;2022-12-29T04:35:05;99633.56;;;12.21;81.60
12868;BME280;33517;49.866;8.320;2022-12-29T04:37:57;99639.00;;;12.19;81.03
12868;BME280;33517;49.866;8.320;2022-12-29T04:40:49;99633.66;;;12.06;83.54
12868;BME280;33517;49.866;8.320;2022-12-29T04:43:43;99634.31;;;11.87;84.88
12868;BME280;33517;49.866;8.320;2022-12-29T04:46:35;99636.31;;;11.78;86.70
12868;BME280;33517;49.866;8.320;2022-12-29T04:49:26;99620.22;;;11.73;87.14
12868;BME280;33517;49.866;8.320;2022-12-29T04:52:18;99623.47;;;11.69;87.84
12868;BME280;33517;49.866;8.320;2022-12-29T04:55:11;99625.28;;;11.68;87.33
12868;BME280;33517;49.866;8.320;2022-12-29T04:58:02;99622.25;;;11.71;88.02
12868;BME280;33517;49.866;8.320;2022-12-29T05:00:56;99627.38;;;11.79;86.85
12868;BME280;33517;49.866;8.320;2022-12-29T05:03:49;99630.22;;;11.78;87.03
12868;BME280;33517;49.866;8.320;2022-12-29T05:06:41;99640.56;;;11.79;87.10
12868;BME280;33517;49.866;8.320;2022-12-29T05:09:33;99624.94;;;11.78;87.44
12868;BME280;33517;49.866;8.320;2022-12-29T05:12:25;99631.03;;;11.78;86.56
12868;BME280;33517;49.866;8.320;2022-12-29T05:15:17;99631.25;;;11.77;87.16
12868;BME280;33517;49.866;8.320;2022-12-29T05:18:10;99618.66;;;11.79;86.79
12868;BME280;33517;49.866;8.320;2022-12-29T05:21:02;99624.38;;;11.82;86.14
12868;BME280;33517;49.866;8.320;2022-12-29T05:23:54;99635.56;;;11.91;85.61
12868;BME280;33517;49.866;8.320;2022-12-29T05:26:46;99625.72;;;11.99;84.83
12868;BME280;33517;49.866;8.320;2022-12-29T05:29:38;99614.56;;;12.04;84.61
12868;BME280;33517;49.866;8.320;2022-12-29T05:32:30;99621.47;;;12.05;82.30
12868;BME280;33517;49.866;8.320;2022-12-29T05:35:23;99618.03;;;12.04;82.16
12868;BME280;33517;49.866;8.320;2022-12-29T05:38:15;99624.13;;;12.05;81.90
12868;BME280;33517;49.866;8.320;2022-12-29T05:41:07;99604.78;;;11.98;82.17
12868;BME280;33517;49.866;8.320;2022-12-29T05:43:59;99614.34;;;11.99;82.92
12868;BME280;33517;49.866;8.320;2022-12-29T05:46:51;99604.00;;;12.04;81.47
12868;BME280;33517;49.866;8.320;2022-12-29T05:49:42;99607.09;;;12.08;82.24
12868;BME280;33517;49.866;8.320;2022-12-29T05:52:36;99609.97;;;12.13;81.23
12868;BME280;33517;49.866;8.320;2022-12-29T05:55:28;99625.22;;;12.24;81.13
12868;BME280;33517;49.866;8.320;2022-12-29T05:58:20;99622.81;;;12.29;81.27
12868;BME280;33517;49.866;8.320;2022-12-29T06:01:12;99630.34;;;12.32;80.73
12868;BME280;33517;49.866;8.320;2022-12-29T06:04:04;99622.88;;;12.35;79.95
12868;BME280;33517;49.866;8.320;2022-12-29T06:06:55;99624.31;;;12.38;79.87
12868;BME280;33517;49.866;8.320;2022-12-29T06:09:49;99621.88;;;12.36;80.49
12868;BME280;33517;49.866;8.320;2022-12-29T06:12:40;99626.13;;;12.37;80.80
12868;BME280;33517;49.866;8.320;2022-12-29T06:15:33;99615.56;;;12.37;80.69
12868;BME280;33517;49.866;8.320;2022-12-29T06:18:25;99629.59;;;12.38;81.14
12868;BME280;33517;49.866;8.320;2022-12-29T06:21:16;99614.09;;;12.28;81.51
12868;BME280;33517;49.866;8.320;2022-12-29T06:24:08;99620.78;;;12.24;81.97
12868;BME280;33517;49.866;8.320;2022-12-29T06:27:03;99634.78;;;12.25;82.37
12868;BME280;33517;49.866;8.320;2022-12-29T06:29:54;99625.22;;;12.17;82.87
12868;BME280;33517;49.866;8.320;2022-12-29T06:32:46;99628.84;;;12.16;82.63
12868;BME280;33517;49.866;8.320;2022-12-29T06:35:40;99630.66;;;12.16;82.53
12868;BME280;33517;49.866;8.320;2022-12-29T06:38:33;99626.41;;;12.15;81.75
12868;BME280;33517;49.866;8.320;2022-12-29T06:41:25;99615.66;;;12.16;82.27
12868;BME280;33517;49.866;8.320;2022-12-29T06:44:19;99610.19;;;12.18;81.32
12868;BME280;33517;49.866;8.320;2022-12-29T06:47:11;99601.06;;;12.20;81.05
12868;BME280;33517;49.866;8.320;2022-12-29T06:50:04;99613.66;;;12.18;81.19
12868;BME280;33517;49.866;8.320;2022-12-29T06:52:56;99615.09;;;12.21;80.72
12868;BME280;33517;49.866;8.320;2022-12-29T06:55:48;99604.56;;;12.27;79.79
12868;BME280;33517;49.866;8.320;2022-12-29T06:58:39;99620.84;;;12.37;77.96
12868;BME280;33517;49.866;8.320;2022-12-29T07:01:33;99612.78;;;12.45;78.39
12868;BME280;33517;49.866;8.320;2022-12-29T07:04:26;99618.47;;;12.49;77.55
12868;BME280;33517;49.866;8.320;2022-12-29T07:07:18;99608.31;;;12.52;77.32
12868;BME280;33517;49.866;8.320;2022-12-29T07:10:10;99616.69;;;12.62;77.07
12868;BME280;33517;49.866;8.320;2022-12-29T07:13:02;99622.97;;;12.61;76.62
12868;BME280;33517;49.866;8.320;2022-12-29T07:15:54;99629.28;;;12.60;76.87
12868;BME280;33517;49.866;8.320;2022-12-29T07:18:47;99630.69;;;12.56;77.34
12868;BME280;33517;49.866;8.320;2022-12-29T07:21:39;99632.69;;;12.54;78.31
12868;BME280;33517;49.866;8.320;2022-12-29T07:24:31;99628.00;;;12.50;78.77
12868;BME280;33517;49.866;8.320;2022-12-29T07:27:23;99635.28;;;12.48;79.02
12868;BME280;33517;49.866;8.320;2022-12-29T07:30:15;99631.88;;;12.47;78.84
12868;BME280;33517;49.866;8.320;2022-12-29T07:33:07;99640.56;;;12.41;79.45
12868;BME280;33517;49.866;8.320;2022-12-29T07:36:00;99631.75;;;12.28;80.35
12868;BME280;33517;49.866;8.320;2022-12-29T07:38:52;99642.31;;;12.28;81.88
12868;BME280;33517;49.866;8.320;2022-12-29T07:41:44;99650.63;;;12.25;81.40
12868;BME280;33517;49.866;8.320;2022-12-29T07:44:36;99650.41;;;12.26;81.58
12868;BME280;33517;49.866;8.320;2022-12-29T07:47:28;99657.31;;;12.27;80.77
12868;BME280;33517;49.866;8.320;2022-12-29T07:50:20;99650.44;;;12.33;80.64
12868;BME280;33517;49.866;8.320;2022-12-29T07:53:13;99656.16;;;12.36;80.88
12868;BME280;33517;49.866;8.320;2022-12-29T07:56:05;99653.31;;;12.38;80.47
12868;BME280;33517;49.866;8.320;2022-12-29T07:58:57;99662.84;;;12.39;79.32
12868;BME280;33517;49.866;8.320;2022-12-29T08:01:49;99663.28;;;12.42;80.32
12868;BME280;33517;49.866;8.320;2022-12-29T08:04:41;99652.97;;;12.47;79.99
12868;BME280;33517;49.866;8.320;2022-12-29T08:07:33;99664.94;;;12.50;79.42
12868;BME280;33517;49.866;8.320;2022-12-29T08:10:26;99678.59;;;12.53;80.12
12868;BME280;33517;49.866;8.320;2022-12-29T08:13:18;99673.53;;;12.58;79.17
12868;BME280;33517;49.866;8.320;2022-12-29T08:16:10;99667.03;;;12.61;79.28
12868;BME280;33517;49.866;8.320;2022-12-29T08:19:02;99671.53;;;12.67;78.96
12868;BME280;33517;49.866;8.320;2022-12-29T08:21:55;99683.31;;;12.64;78.83
12868;BME280;33517;49.866;8.320;2022-12-29T08:24:47;99685.16;;;12.70;78.18
12868;BME280;33517;49.866;8.320;2022-12-29T08:27:40;99675.41;;;12.71;78.34
12868;BME280;33517;49.866;8.320;2022-12-29T08:30:32;99675.81;;;12.68;78.05
12868;BME280;33517;49.866;8.320;2022-12-29T08:33:24;99678.66;;;12.66;79.10
12868;BME280;33517;49.866;8.320;2022-12-29T08:36:17;99675.38;;;12.64;79.02
12868;BME280;33517;49.866;8.320;2022-12-29T08:39:09;99674.34;;;12.65;78.94
12868;BME280;33517;49.866;8.320;2022-12-29T08:42:00;99679.63;;;12.65;78.93
12868;BME280;33517;49.866;8.320;2022-12-29T08:44:54;99673.38;;;12.66;77.78
12868;BME280;33517;49.866;8.320;2022-12-29T08:47:46;99668.50;;;12.70;77.84
12868;BME280;33517;49.866;8.320;2022-12-29T08:50:38;99669.75;;;12.74;77.40
12868;BME280;33517;49.866;8.320;2022-12-29T08:53:30;99673.19;;;12.74;76.85
12868;BME280;33517;49.866;8.320;2022-12-29T08:56:22;99671.38;;;12.81;77.18
12868;BME280;33517;49.866;8.320;2022-12-29T08:59:14;99678.13;;;12.90;76.91
12868;BME280;33517;49.866;8.320;2022-12-29T09:02:09;99675.50;;;12.97;76.63
12868;BME280;33517;49.866;8.320;2022-12-29T09:05:02;99686.88;;;12.97;76.05
12868;BME280;33517;49.866;8.320;2022-12-29T09:07:54;99689.50;;;12.97;76.64
12868;BME280;33517;49.866;8.320;2022-12-29T09:10:46;99690.53;;;12.96;76.73
12868;BME280;33517;49.866;8.320;2022-12-29T09:13:38;99687.75;;;13.05;77.00
12868;BME280;33517;49.866;8.320;2022-12-29T09:16:30;99680.44;;;13.13;76.21
12868;BME280;33517;49.866;8.320;2022-12-29T09:19:23;99684.13;;;13.19;75.67
12868;BME280;33517;49.866;8.320;2022-12-29T09:22:15;99684.78;;;13.27;75.01
12868;BME280;33517;49.866;8.320;2022-12-29T09:25:08;99681.13;;;13.35;75.50
12868;BME280;33517;49.866;8.320;2022-12-29T09:28:00;99685.34;;;13.23;75.03
12868;BME280;33517;49.866;8.320;2022-12-29T09:30:58;99693.06;;;13.18;75.92
12868;BME280;33517;49.866;8.320;2022-12-29T09:33:50;99694.28;;;13.09;76.60
12868;BME280;33517;49.866;8.320;2022-12-29T09:36:43;99695.06;;;13.09;75.08
12868;BME280;33517;49.866;8.320;2022-12-29T09:39:35;99703.22;;;13.14;75.43
12868;BME280;33517;49.866;8.320;2022-12-29T09:42:32;99705.44;;;13.04;77.64
12868;BME280;33517;49.866;8.320;2022-12-29T09:45:29;99697.25;;;12.99;78.51
12868;BME280;33517;49.866;8.320;2022-12-29T09:48:27;99707.47;;;13.09;77.41
12868;BME280;33517;49.866;8.320;2022-12-29T09:51:22;99712.59;;;13.17;76.29
12868;BME280;33517;49.866;8.320;2022-12-29T09:54:28;99730.72;;;13.26;77.49
12868;BME280;33517;49.866;8.320;2022-12-29T09:57:26;99744.47;;;13.15;79.58
12868;BME280;33517;49.866;8.320;2022-12-29T10:00:20;99792.03;;;12.81;82.49
12868;BME280;33517;49.866;8.320;2022-12-29T10:03:16;99788.38;;;11.78;89.34
12868;BME280;33517;49.866;8.320;2022-12-29T10:06:11;99768.88;;;11.22;94.06
12868;BME280;33517;49.866;8.320;2022-12-29T10:09:11;99772.38;;;11.08;94.94
12868;BME280;33517;49.866;8.320;2022-12-29T10:12:19;99762.00;;;11.06;95.25
12868;BME280;33517;49.866;8.320;2022-12-29T10:15:20;99756.38;;;10.95;95.45
12868;BME280;33517;49.866;8.320;2022-12-29T10:18:46;99758.19;;;11.09;96.53
12868;BME280;33517;49.866;8.320;2022-12-29T10:21:50;99750.25;;;11.24;95.18
12868;BME280;33517;49.866;8.320;2022-12-29T10:24:47;99753.41;;;11.34;94.63
12868;BME280;33517;49.866;8.320;2022-12-29T10:27:42;99760.56;;;11.40;92.52
12868;BME280;33517;49.866;8.320;2022-12-29T10:30:35;99755.44;;;11.67;93.05
12868;BME280;33517;49.866;8.320;2022-12-29T10:33:32;99764.97;;;11.89;91.45
12868;BME280;33517;49.866;8.320;2022-12-29T10:36:32;99756.00;;;11.84;90.30
12868;BME280;33517;49.866;8.320;2022-12-29T10:39:30;99745.25;;;11.85;91.13
12868;BME280;33517;49.866;8.320;2022-12-29T10:42:27;99754.81;;;11.86;91.65
12868;BME280;33517;49.866;8.320;2022-12-29T10:45:22;99748.50;;;11.87;91.07
12868;BME280;33517;49.866;8.320;2022-12-29T10:48:19;99738.47;;;11.97;91.35
12868;BME280;33517;49.866;8.320;2022-12-29T10:51:20;99733.34;;;12.17;91.36
12868;BME280;33517;49.866;8.320;2022-12-29T10:54:18;99734.09;;;12.39;89.54
12868;BME280;33517;49.866;8.320;2022-12-29T10:57:16;99744.84;;;12.71;87.85
12868;BME280;33517;49.866;8.320;2022-12-29T11:00:12;99749.41;;;12.90;86.60
12868;BME280;33517;49.866;8.320;2022-12-29T11:03:33;99739.81;;;13.11;84.63
12868;BME280;33517;49.866;8.320;2022-12-29T11:06:28;99742.06;;;13.20;83.09
12868;BME280;33517;49.866;8.320;2022-12-29T11:09:24;99755.69;;;13.24;82.09
12868;BME280;33517;49.866;8.320;2022-12-29T11:12:22;99767.25;;;14.09;80.03
12868;BME280;33517;49.866;8.320;2022-12-29T11:15:15;99770.47;;;13.72;78.12
12868;BME280;33517;49.866;8.320;2022-12-29T11:18:19;99774.66;;;13.40;79.33
12868;BME280;33517;49.866;8.320;2022-12-29T11:21:26;99775.19;;;13.23;80.90
12868;BME280;33517;49.866;8.320;2022-12-29T11:24:20;99777.25;;;13.27;80.69
12868;BME280;33517;49.866;8.320;2022-12-29T11:27:15;99783.31;;;13.15;80.00
12868;BME280;33517;49.866;8.320;2022-12-29T11:30:22;99777.16;;;13.08;81.23
12868;BME280;33517;49.866;8.320;2022-12-29T11:33:17;99776.88;;;12.96;80.43
12868;BME280;33517;49.866;8.320;2022-12-29T11:36:14;99782.50;;;12.86;81.36
12868;BME280;33517;49.866;8.320;2022-12-29T11:39:28;99785.41;;;12.98;81.32
12868;BME280;33517;49.866;8.320;2022-12-29T11:42:23;99781.56;;;13.41;80.94
12868;BME280;33517;49.866;8.320;2022-12-29T11:45:23;99783.03;;;13.50;79.39
12868;BME280;33517;49.866;8.320;2022-12-29T11:48:17;99781.75;;;13.40;79.71
12868;BME280;33517;49.866;8.320;2022-12-29T11:51:11;99784.34;;;13.20;79.77
12868;BME280;33517;49.866;8.320;2022-12-29T11:54:16;99797.38;;;12.94;80.30
12868;BME280;33517;49.866;8.320;2022-12-29T11:57:12;99798.31;;;12.80;81.65
12868;BME280;33517;49.866;8.320;2022-12-29T12:00:14;99792.44;;;12.84;82.04
12868;BME280;33517;49.866;8.320;2022-12-29T12:03:11;99794.81;;;12.73;82.59
12868;BME280;33517;49.866;8.320;2022-12-29T12:06:07;99793.69;;;12.54;84.17
12868;BME280;33517;49.866;8.320;2022-12-29T12:09:07;99790.56;;;12.78;86.32
12868;BME280;33517;49.866;8.320;2022-12-29T12:12:03;99783.75;;;12.90;85.62
12868;BME280;33517;49.866;8.320;2022-12-29T12:14:58;99772.81;;;12.93;85.62
12868;BME280;33517;49.866;8.320;2022-12-29T12:17:53;99777.63;;;13.18;84.83
12868;BME280;33517;49.866;8.320;2022-12-29T12:20:50;99785.59;;;13.24;84.01
12868;BME280;33517;49.866;8.320;2022-12-29T12:24:02;99778.03;;;13.21;83.23
12868;BME280;33517;49.866;8.320;2022-12-29T12:27:02;99775.00;;;13.24;83.25
12868;BME280;33517;49.866;8.320;2022-12-29T12:30:03;99768.75;;;13.38;82.21
12868;BME280;33517;49.866;8.320;2022-12-29T12:32:59;99767.56;;;13.54;81.06
12868;BME280;33517;49.866;8.320;2022-12-29T12:36:12;99762.94;;;13.62;79.86
12868;BME280;33517;49.866;8.320;2022-12-29T12:39:11;99763.97;;;13.68;79.13
12868;BME280;33517;49.866;8.320;2022-12-29T12:42:19;99765.09;;;13.46;79.47
12868;BME280;33517;49.866;8.320;2022-12-29T12:45:31;99764.41;;;13.18;80.86
12868;BME280;33517;49.866;8.320;2022-12-29T12:48:42;99761.72;;;13.05;81.07
12868;BME280;33517;49.866;8.320;2022-12-29T12:51:42;99771.31;;;12.84;81.59
12868;BME280;33517;49.866;8.320;2022-12-29T12:55:01;99762.59;;;12.84;82.28
12868;BME280;33517;49.866;8.320;2022-12-29T12:58:07;99768.09;;;12.89;82.33
12868;BME280;33517;49.866;8.320;2022-12-29T13:01:14;99762.63;;;12.90;82.20
12868;BME280;33517;49.866;8.320;2022-12-29T13:04:28;99784.09;;;12.81;82.24
12868;BME280;33517;49.866;8.320;2022-12-29T13:07:33;99766.81;;;12.78;82.45
12868;BME280;33517;49.866;8.320;2022-12-29T13:10:39;99756.44;;;13.11;82.96
12868;BME280;33517;49.866;8.320;2022-12-29T13:13:48;99760.97;;;13.24;81.10
12868;BME280;33517;49.866;8.320;2022-12-29T13:16:50;99753.00;;;13.11;81.23
12868;BME280;33517;49.866;8.320;2022-12-29T13:19:48;99766.25;;;12.83;81.68
12868;BME280;33517;49.866;8.320;2022-12-29T13:22:48;99767.84;;;12.77;82.51
12868;BME280;33517;49.866;8.320;2022-12-29T13:25:47;99765.94;;;12.65;81.26
12868;BME280;33517;49.866;8.320;2022-12-29T13:28:51;99761.28;;;12.67;81.35
12868;BME280;33517;49.866;8.320;2022-12-29T13:31:52;99768.00;;;12.69;80.60
12868;BME280;33517;49.866;8.320;2022-12-29T13:34:53;99764.16;;;12.72;80.58
12868;BME280;33517;49.866;8.320;2022-12-29T13:37:52;99772.50;;;12.75;80.43
12868;BME280;33517;49.866;8.320;2022-12-29T13:40:48;99769.84;;;12.75;79.57
12868;BME280;33517;49.866;8.320;2022-12-29T13:43:44;99762.16;;;12.80;79.63
12868;BME280;33517;49.866;8.320;2022-12-29T13:46:40;99767.84;;;12.77;77.64
12868;BME280;33517;49.866;8.320;2022-12-29T13:49:34;99766.66;;;12.86;78.03
12868;BME280;33517;49.866;8.320;2022-12-29T13:52:32;99769.44;;;12.78;78.00
12868;BME280;33517;49.866;8.320;2022-12-29T13:55:29;99774.50;;;12.73;77.37
12868;BME280;33517;49.866;8.320;2022-12-29T13:58:28;99783.06;;;12.75;77.25
12868;BME280;33517;49.866;8.320;2022-12-29T14:01:29;99780.63;;;12.74;76.25
12868;BME280;33517;49.866;8.320;2022-12-29T14:04:25;99789.38;;;12.74;76.70
12868;BME280;33517;49.866;8.320;2022-12-29T14:07:17;99789.16;;;12.76;77.79
12868;BME280;33517;49.866;8.320;2022-12-29T14:10:26;99794.03;;;12.72;76.67
12868;BME280;33517;49.866;8.320;2022-12-29T14:13:20;99783.81;;;12.69;75.78
12868;BME280;33517;49.866;8.320;2022-12-29T14:16:29;99799.25;;;12.66;75.52
12868;BME280;33517;49.866;8.320;2022-12-29T14:19:26;99793.28;;;12.57;75.90
12868;BME280;33517;49.866;8.320;2022-12-29T14:22:23;99794.31;;;12.56;74.84
12868;BME280;33517;49.866;8.320;2022-12-29T14:28:46;99814.59;;;12.56;74.57
12868;BME280;33517;49.866;8.320;2022-12-29T14:31:40;99815.97;;;12.52;74.23
12868;BME280;33517;49.866;8.320;2022-12-29T14:34:39;99817.00;;;12.51;75.14
12868;BME280;33517;49.866;8.320;2022-12-29T14:37:36;99821.25;;;12.52;75.20
12868;BME280;33517;49.866;8.320;2022-12-29T14:40:29;99819.09;;;12.55;75.12
12868;BME280;33517;49.866;8.320;2022-12-29T14:43:25;99806.69;;;12.56;74.34
12868;BME280;33517;49.866;8.320;2022-12-29T14:46:18;99805.25;;;12.53;75.39
12868;BME280;33517;49.866;8.320;2022-12-29T14:49:16;99798.66;;;12.43;75.31
12868;BME280;33517;49.866;8.320;2022-12-29T14:52:14;99789.28;;;12.34;75.06
12868;BME280;33517;49.866;8.320;2022-12-29T14:55:37;99799.47;;;12.16;75.42
12868;BME280;33517;49.866;8.320;2022-12-29T14:58:32;99809.06;;;12.02;75.52
12868;BME280;33517;49.866;8.320;2022-12-29T15:01:39;99808.41;;;11.93;74.93
12868;BME280;33517;49.866;8.320;2022-12-29T15:04:36;99804.25;;;11.84;74.51
12868;BME280;33517;49.866;8.320;2022-12-29T15:07:29;99817.91;;;11.73;75.28
12868;BME280;33517;49.866;8.320;2022-12-29T15:10:21;99816.56;;;11.63;74.96
12868;BME280;33517;49.866;8.320;2022-12-29T15:13:16;99819.94;;;11.57;75.58
12868;BME280;33517;49.866;8.320;2022-12-29T15:16:21;99813.50;;;11.45;75.35
12868;BME280;33517;49.866;8.320;2022-12-29T15:19:21;99816.09;;;11.38;75.04
12868;BME280;33517;49.866;8.320;2022-12-29T15:22:14;99824.97;;;11.37;75.64
12868;BME280;33517;49.866;8.320;2022-12-29T15:25:15;99813.16;;;11.33;75.54
12868;BME280;33517;49.866;8.320;2022-12-29T15:28:11;99822.44;;;11.29;76.29
12868;BME280;33517;49.866;8.320;2022-12-29T15:31:05;99840.25;;;11.27;77.13
12868;BME280;33517;49.866;8.320;2022-12-29T15:34:07;99839.50;;;11.33;77.02
12868;BME280;33517;49.866;8.320;2022-12-29T15:37:05;99840.31;;;11.34;76.65
12868;BME280;33517;49.866;8.320;2022-12-29T15:39:59;99853.06;;;11.30;76.63
12868;BME280;33517;49.866;8.320;2022-12-29T15:43:10;99850.81;;;11.27;76.69